sensor_id;sensor_type;location;lat;lon;timestamp;P1;durP1;ratioP1;P2;durP2;ratioP2
11943;SDS011;6031;50.220;10.122;2023-03-19T00:02:05;10.10;;;6.70;;
11943;SDS011;6031;50.220;10.122;2023-03-19T00:04:31;11.13;;;7.77;;
11943;SDS011;6031;50.220;10.122;2023-03-19T00:06:57;14.83;;;7.60;;
11943;SDS011;6031;50.220;10.122;2023-03-19T00:09:23;11.97;;;7.40;;
11943;SDS011;6031;50.220;10.122;2023-03-19T00:11:48;8.77;;;6.97;;
11943;SDS011;6031;50.220;10.122;2023-03-19T00:14:14;6.63;;;5.00;;
11943;SDS011;6031;50.220;10.122;2023-03-19T00:16:41;9.40;;;6.20;;
11943;SDS011;6031;50.220;10.122;2023-03-19T00:19:06;9.30;;;5.87;;
11943;SDS011;6031;50.220;10.122;2023-03-19T00:21:32;9.43;;;6.20;;
11943;SDS011;6031;50.220;10.122;2023-03-19T00:23:58;7.67;;;5.90;;
11943;SDS011;6031;50.220;10.122;2023-03-19T00:26:29;7.80;;;5.47;;
11943;SDS011;6031;50.220;10.122;2023-03-19T00:28:56;8.03;;;5.40;;
11943;SDS011;6031;50.220;10.122;2023-03-19T00:31:23;8.97;;;5.27;;
11943;SDS011;6031;50.220;10.122;2023-03-19T00:33:49;7.00;;;6.27;;
11943;SDS011;6031;50.220;10.122;2023-03-19T00:36:16;9.90;;;6.63;;
11943;SDS011;6031;50.220;10.122;2023-03-19T00:38:42;8.07;;;6.10;;
11943;SDS011;6031;50.220;10.122;2023-03-19T00:41:08;7.47;;;6.63;;
11943;SDS011;6031;50.220;10.122;2023-03-19T00:43:34;9.10;;;6.90;;
11943;SDS011;6031;50.220;10.122;2023-03-19T00:46:00;8.80;;;5.90;;
11943;SDS011;6031;50.220;10.122;2023-03-19T00:48:26;7.07;;;5.63;;
11943;SDS011;6031;50.220;10.122;2023-03-19T00:50:52;12.03;;;6.27;;
11943;SDS011;6031;50.220;10.122;2023-03-19T00:53:18;7.50;;;5.77;;
11943;SDS011;6031;50.220;10.122;2023-03-19T00:55:44;10.30;;;7.10;;
11943;SDS011;6031;50.220;10.122;2023-03-19T00:58:10;23.37;;;15.67;;
11943;SDS011;6031;50.220;10.122;2023-03-19T01:00:36;11.53;;;7.93;;
11943;SDS011;6031;50.220;10.122;2023-03-19T01:03:02;8.97;;;6.67;;
11943;SDS011;6031;50.220;10.122;2023-03-19T01:05:29;11.30;;;7.23;;
11943;SDS011;6031;50.220;10.122;2023-03-19T01:07:54;12.00;;;7.10;;
11943;SDS011;6031;50.220;10.122;2023-03-19T01:10:20;7.20;;;5.73;;
11943;SDS011;6031;50.220;10.122;2023-03-19T01:12:48;7.63;;;6.37;;
11943;SDS011;6031;50.220;10.122;2023-03-19T01:15:14;15.43;;;8.77;;
11943;SDS011;6031;50.220;10.122;2023-03-19T01:17:40;10.03;;;7.67;;
11943;SDS011;6031;50.220;10.122;2023-03-19T01:20:06;9.63;;;7.47;;
11943;SDS011;6031;50.220;10.122;2023-03-19T01:22:37;9.50;;;6.97;;
11943;SDS011;6031;50.220;10.122;2023-03-19T01:25:05;9.70;;;6.20;;
11943;SDS011;6031;50.220;10.122;2023-03-19T01:27:31;8.70;;;6.70;;
11943;SDS011;6031;50.220;10.122;2023-03-19T01:29:57;7.33;;;6.00;;
11943;SDS011;6031;50.220;10.122;2023-03-19T01:32:22;8.50;;;5.33;;
11943;SDS011;6031;50.220;10.122;2023-03-19T01:34:47;7.17;;;5.53;;
11943;SDS011;6031;50.220;10.122;2023-03-19T01:37:13;11.70;;;7.30;;
11943;SDS011;6031;50.220;10.122;2023-03-19T01:39:39;7.97;;;5.70;;
11943;SDS011;6031;50.220;10.122;2023-03-19T01:42:05;6.47;;;5.03;;
11943;SDS011;6031;50.220;10.122;2023-03-19T01:44:32;6.37;;;4.80;;
11943;SDS011;6031;50.220;10.122;2023-03-19T01:47:00;6.83;;;5.40;;
11943;SDS011;6031;50.220;10.122;2023-03-19T01:49:30;8.50;;;5.60;;
11943;SDS011;6031;50.220;10.122;2023-03-19T01:51:56;7.60;;;5.57;;
11943;SDS011;6031;50.220;10.122;2023-03-19T01:54:25;8.90;;;5.60;;
11943;SDS011;6031;50.220;10.122;2023-03-19T01:57:04;10.17;;;5.87;;
11943;SDS011;6031;50.220;10.122;2023-03-19T01:59:34;9.30;;;5.30;;
11943;SDS011;6031;50.220;10.122;2023-03-19T02:02:05;7.13;;;5.33;;
11943;SDS011;6031;50.220;10.122;2023-03-19T02:04:45;6.87;;;5.20;;
11943;SDS011;6031;50.220;10.122;2023-03-19T02:07:13;10.83;;;5.03;;
11943;SDS011;6031;50.220;10.122;2023-03-19T02:09:39;5.63;;;4.63;;
11943;SDS011;6031;50.220;10.122;2023-03-19T02:12:06;4.47;;;4.07;;
11943;SDS011;6031;50.220;10.122;2023-03-19T02:14:32;7.83;;;5.00;;
11943;SDS011;6031;50.220;10.122;2023-03-19T02:16:58;6.87;;;4.77;;
11943;SDS011;6031;50.220;10.122;2023-03-19T02:19:29;9.03;;;5.40;;
11943;SDS011;6031;50.220;10.122;2023-03-19T02:21:59;5.47;;;4.97;;
11943;SDS011;6031;50.220;10.122;2023-03-19T02:24:31;7.57;;;5.53;;
11943;SDS011;6031;50.220;10.122;2023-03-19T02:26:59;9.00;;;5.60;;
11943;SDS011;6031;50.220;10.122;2023-03-19T02:29:26;7.67;;;5.20;;
11943;SDS011;6031;50.220;10.122;2023-03-19T02:31:51;5.80;;;5.23;;
11943;SDS011;6031;50.220;10.122;2023-03-19T02:36:56;7.07;;;5.90;;
11943;SDS011;6031;50.220;10.122;2023-03-19T02:39:33;6.13;;;5.53;;
11943;SDS011;6031;50.220;10.122;2023-03-19T02:42:06;8.30;;;5.13;;
11943;SDS011;6031;50.220;10.122;2023-03-19T02:44:35;10.77;;;5.93;;
11943;SDS011;6031;50.220;10.122;2023-03-19T02:47:01;9.23;;;5.63;;
11943;SDS011;6031;50.220;10.122;2023-03-19T02:49:28;5.30;;;4.80;;
11943;SDS011;6031;50.220;10.122;2023-03-19T02:51:53;9.67;;;5.53;;
11943;SDS011;6031;50.220;10.122;2023-03-19T02:54:19;8.03;;;5.20;;
11943;SDS011;6031;50.220;10.122;2023-03-19T02:56:44;7.57;;;5.07;;
11943;SDS011;6031;50.220;10.122;2023-03-19T02:59:10;4.43;;;4.03;;
11943;SDS011;6031;50.220;10.122;2023-03-19T03:01:36;8.70;;;5.33;;
11943;SDS011;6031;50.220;10.122;2023-03-19T03:04:01;5.27;;;4.70;;
11943;SDS011;6031;50.220;10.122;2023-03-19T03:06:28;5.37;;;4.57;;
11943;SDS011;6031;50.220;10.122;2023-03-19T03:08:54;4.90;;;4.40;;
11943;SDS011;6031;50.220;10.122;2023-03-19T03:11:20;5.53;;;5.03;;
11943;SDS011;6031;50.220;10.122;2023-03-19T03:13:46;5.37;;;4.57;;
11943;SDS011;6031;50.220;10.122;2023-03-19T03:16:12;5.70;;;4.90;;
11943;SDS011;6031;50.220;10.122;2023-03-19T03:18:37;5.37;;;4.83;;
11943;SDS011;6031;50.220;10.122;2023-03-19T03:21:03;3.87;;;3.53;;
11943;SDS011;6031;50.220;10.122;2023-03-19T03:23:29;4.57;;;4.17;;
11943;SDS011;6031;50.220;10.122;2023-03-19T03:25:54;4.80;;;4.00;;
11943;SDS011;6031;50.220;10.122;2023-03-19T03:28:20;5.27;;;4.23;;
11943;SDS011;6031;50.220;10.122;2023-03-19T03:30:45;7.27;;;5.20;;
11943;SDS011;6031;50.220;10.122;2023-03-19T03:33:11;5.83;;;4.80;;
11943;SDS011;6031;50.220;10.122;2023-03-19T03:35:37;6.13;;;5.07;;
11943;SDS011;6031;50.220;10.122;2023-03-19T03:38:02;7.13;;;5.40;;
11943;SDS011;6031;50.220;10.122;2023-03-19T03:40:29;5.73;;;5.07;;
11943;SDS011;6031;50.220;10.122;2023-03-19T03:42:54;7.43;;;5.13;;
11943;SDS011;6031;50.220;10.122;2023-03-19T03:45:20;9.93;;;7.60;;
11943;SDS011;6031;50.220;10.122;2023-03-19T03:47:46;8.67;;;6.10;;
11943;SDS011;6031;50.220;10.122;2023-03-19T03:50:11;7.70;;;5.63;;
11943;SDS011;6031;50.220;10.122;2023-03-19T03:52:37;12.40;;;7.60;;
11943;SDS011;6031;50.220;10.122;2023-03-19T03:55:03;7.60;;;5.73;;
11943;SDS011;6031;50.220;10.122;2023-03-19T03:57:29;7.57;;;5.30;;
11943;SDS011;6031;50.220;10.122;2023-03-19T03:59:55;5.57;;;4.83;;
11943;SDS011;6031;50.220;10.122;2023-03-19T04:02:21;9.20;;;6.37;;
11943;SDS011;6031;50.220;10.122;2023-03-19T04:04:46;6.40;;;5.27;;
11943;SDS011;6031;50.220;10.122;2023-03-19T04:07:12;5.43;;;4.93;;
11943;SDS011;6031;50.220;10.122;2023-03-19T04:09:38;9.10;;;6.57;;
11943;SDS011;6031;50.220;10.122;2023-03-19T04:12:03;7.43;;;5.67;;
11943;SDS011;6031;50.220;10.122;2023-03-19T04:14:29;6.10;;;5.07;;
11943;SDS011;6031;50.220;10.122;2023-03-19T04:16:55;6.60;;;5.60;;
11943;SDS011;6031;50.220;10.122;2023-03-19T04:19:20;5.40;;;4.77;;
11943;SDS011;6031;50.220;10.122;2023-03-19T04:21:46;7.67;;;5.93;;
11943;SDS011;6031;50.220;10.122;2023-03-19T04:24:11;6.47;;;5.87;;
11943;SDS011;6031;50.220;10.122;2023-03-19T04:26:38;9.80;;;6.77;;
11943;SDS011;6031;50.220;10.122;2023-03-19T04:29:03;10.90;;;6.97;;
11943;SDS011;6031;50.220;10.122;2023-03-19T04:31:29;12.40;;;8.20;;
11943;SDS011;6031;50.220;10.122;2023-03-19T04:33:55;8.10;;;5.87;;
11943;SDS011;6031;50.220;10.122;2023-03-19T04:36:22;7.27;;;5.37;;
11943;SDS011;6031;50.220;10.122;2023-03-19T04:38:48;7.27;;;5.37;;
11943;SDS011;6031;50.220;10.122;2023-03-19T04:41:13;7.33;;;4.90;;
11943;SDS011;6031;50.220;10.122;2023-03-19T04:43:40;10.50;;;5.63;;
11943;SDS011;6031;50.220;10.122;2023-03-19T04:46:06;8.27;;;6.70;;
11943;SDS011;6031;50.220;10.122;2023-03-19T04:48:32;16.40;;;11.20;;
11943;SDS011;6031;50.220;10.122;2023-03-19T04:51:00;9.23;;;7.40;;
11943;SDS011;6031;50.220;10.122;2023-03-19T04:53:26;9.53;;;6.60;;
11943;SDS011;6031;50.220;10.122;2023-03-19T04:55:52;5.07;;;4.53;;
11943;SDS011;6031;50.220;10.122;2023-03-19T04:58:18;6.20;;;4.63;;
11943;SDS011;6031;50.220;10.122;2023-03-19T05:00:44;5.13;;;4.63;;
11943;SDS011;6031;50.220;10.122;2023-03-19T05:03:11;5.73;;;4.87;;
11943;SDS011;6031;50.220;10.122;2023-03-19T05:05:39;7.57;;;5.30;;
11943;SDS011;6031;50.220;10.122;2023-03-19T05:08:05;5.80;;;5.20;;
11943;SDS011;6031;50.220;10.122;2023-03-19T05:10:32;5.50;;;5.00;;
11943;SDS011;6031;50.220;10.122;2023-03-19T05:12:58;6.03;;;4.70;;
11943;SDS011;6031;50.220;10.122;2023-03-19T05:15:24;6.27;;;4.53;;
11943;SDS011;6031;50.220;10.122;2023-03-19T05:17:49;4.27;;;3.87;;
11943;SDS011;6031;50.220;10.122;2023-03-19T05:20:15;4.70;;;4.00;;
11943;SDS011;6031;50.220;10.122;2023-03-19T05:22:41;4.90;;;4.40;;
11943;SDS011;6031;50.220;10.122;2023-03-19T05:25:07;5.00;;;4.50;;
11943;SDS011;6031;50.220;10.122;2023-03-19T05:27:33;5.13;;;4.70;;
11943;SDS011;6031;50.220;10.122;2023-03-19T05:29:59;4.53;;;4.13;;
11943;SDS011;6031;50.220;10.122;2023-03-19T05:32:25;4.87;;;4.00;;
11943;SDS011;6031;50.220;10.122;2023-03-19T05:34:51;5.20;;;4.70;;
11943;SDS011;6031;50.220;10.122;2023-03-19T05:37:16;8.30;;;4.90;;
11943;SDS011;6031;50.220;10.122;2023-03-19T05:39:42;6.87;;;4.57;;
11943;SDS011;6031;50.220;10.122;2023-03-19T05:42:08;6.03;;;4.30;;
11943;SDS011;6031;50.220;10.122;2023-03-19T05:44:33;5.73;;;4.10;;
11943;SDS011;6031;50.220;10.122;2023-03-19T05:46:59;5.17;;;4.67;;
11943;SDS011;6031;50.220;10.122;2023-03-19T05:49:25;5.03;;;4.03;;
11943;SDS011;6031;50.220;10.122;2023-03-19T05:51:50;6.17;;;4.40;;
11943;SDS011;6031;50.220;10.122;2023-03-19T05:54:16;4.07;;;3.67;;
11943;SDS011;6031;50.220;10.122;2023-03-19T05:56:41;4.17;;;3.73;;
11943;SDS011;6031;50.220;10.122;2023-03-19T05:59:07;5.33;;;4.23;;
11943;SDS011;6031;50.220;10.122;2023-03-19T06:01:32;5.87;;;4.70;;
11943;SDS011;6031;50.220;10.122;2023-03-19T06:03:58;6.03;;;5.20;;
11943;SDS011;6031;50.220;10.122;2023-03-19T06:06:24;5.83;;;4.73;;
11943;SDS011;6031;50.220;10.122;2023-03-19T06:08:49;5.00;;;4.50;;
11943;SDS011;6031;50.220;10.122;2023-03-19T06:11:15;6.23;;;5.00;;
11943;SDS011;6031;50.220;10.122;2023-03-19T06:13:40;7.93;;;4.30;;
11943;SDS011;6031;50.220;10.122;2023-03-19T06:16:07;6.13;;;4.53;;
11943;SDS011;6031;50.220;10.122;2023-03-19T06:18:33;6.50;;;5.20;;
11943;SDS011;6031;50.220;10.122;2023-03-19T06:20:58;6.47;;;4.63;;
11943;SDS011;6031;50.220;10.122;2023-03-19T06:23:24;6.37;;;5.10;;
11943;SDS011;6031;50.220;10.122;2023-03-19T06:25:50;8.67;;;5.60;;
11943;SDS011;6031;50.220;10.122;2023-03-19T06:28:15;7.13;;;4.50;;
11943;SDS011;6031;50.220;10.122;2023-03-19T06:30:41;8.00;;;5.60;;
11943;SDS011;6031;50.220;10.122;2023-03-19T06:33:07;5.90;;;5.40;;
11943;SDS011;6031;50.220;10.122;2023-03-19T06:35:33;5.90;;;5.30;;
11943;SDS011;6031;50.220;10.122;2023-03-19T06:37:58;7.17;;;5.70;;
11943;SDS011;6031;50.220;10.122;2023-03-19T06:40:24;8.17;;;5.50;;
11943;SDS011;6031;50.220;10.122;2023-03-19T06:42:50;7.27;;;5.73;;
11943;SDS011;6031;50.220;10.122;2023-03-19T06:45:16;7.83;;;5.57;;
11943;SDS011;6031;50.220;10.122;2023-03-19T06:47:43;6.33;;;5.80;;
11943;SDS011;6031;50.220;10.122;2023-03-19T06:50:11;6.10;;;5.03;;
11943;SDS011;6031;50.220;10.122;2023-03-19T06:52:37;7.27;;;5.83;;
11943;SDS011;6031;50.220;10.122;2023-03-19T06:55:02;7.20;;;6.33;;
11943;SDS011;6031;50.220;10.122;2023-03-19T06:57:29;8.43;;;7.63;;
11943;SDS011;6031;50.220;10.122;2023-03-19T06:59:54;11.10;;;7.00;;
11943;SDS011;6031;50.220;10.122;2023-03-19T07:02:20;7.73;;;6.07;;
11943;SDS011;6031;50.220;10.122;2023-03-19T07:04:47;5.77;;;5.17;;
11943;SDS011;6031;50.220;10.122;2023-03-19T07:07:12;6.03;;;5.43;;
11943;SDS011;6031;50.220;10.122;2023-03-19T07:09:38;5.80;;;5.27;;
11943;SDS011;6031;50.220;10.122;2023-03-19T07:12:03;5.60;;;5.00;;
11943;SDS011;6031;50.220;10.122;2023-03-19T07:14:29;5.10;;;4.60;;
11943;SDS011;6031;50.220;10.122;2023-03-19T07:16:54;5.93;;;5.23;;
11943;SDS011;6031;50.220;10.122;2023-03-19T07:19:20;6.10;;;5.50;;
11943;SDS011;6031;50.220;10.122;2023-03-19T07:21:46;7.93;;;6.47;;
11943;SDS011;6031;50.220;10.122;2023-03-19T07:24:12;7.47;;;6.00;;
11943;SDS011;6031;50.220;10.122;2023-03-19T07:26:38;7.87;;;6.63;;
11943;SDS011;6031;50.220;10.122;2023-03-19T07:29:03;8.83;;;6.30;;
11943;SDS011;6031;50.220;10.122;2023-03-19T07:31:29;20.03;;;13.83;;
11943;SDS011;6031;50.220;10.122;2023-03-19T07:33:55;8.67;;;7.77;;
11943;SDS011;6031;50.220;10.122;2023-03-19T07:36:20;6.53;;;5.30;;
11943;SDS011;6031;50.220;10.122;2023-03-19T07:38:46;6.43;;;5.63;;
11943;SDS011;6031;50.220;10.122;2023-03-19T07:41:12;7.20;;;6.00;;
11943;SDS011;6031;50.220;10.122;2023-03-19T07:43:37;7.20;;;5.87;;
11943;SDS011;6031;50.220;10.122;2023-03-19T07:46:03;6.73;;;5.50;;
11943;SDS011;6031;50.220;10.122;2023-03-19T07:48:29;7.27;;;6.07;;
11943;SDS011;6031;50.220;10.122;2023-03-19T07:50:54;9.27;;;6.93;;
11943;SDS011;6031;50.220;10.122;2023-03-19T07:53:20;11.20;;;7.70;;
11943;SDS011;6031;50.220;10.122;2023-03-19T07:55:46;8.13;;;7.33;;
11943;SDS011;6031;50.220;10.122;2023-03-19T07:58:12;11.63;;;8.73;;
11943;SDS011;6031;50.220;10.122;2023-03-19T08:00:37;12.10;;;9.60;;
11943;SDS011;6031;50.220;10.122;2023-03-19T08:03:03;14.53;;;10.20;;
11943;SDS011;6031;50.220;10.122;2023-03-19T08:05:28;11.37;;;9.93;;
11943;SDS011;6031;50.220;10.122;2023-03-19T08:07:54;11.00;;;9.80;;
11943;SDS011;6031;50.220;10.122;2023-03-19T08:10:19;12.77;;;11.47;;
11943;SDS011;6031;50.220;10.122;2023-03-19T08:12:46;14.17;;;10.57;;
11943;SDS011;6031;50.220;10.122;2023-03-19T08:15:12;13.50;;;10.03;;
11943;SDS011;6031;50.220;10.122;2023-03-19T08:17:38;14.70;;;9.70;;
11943;SDS011;6031;50.220;10.122;2023-03-19T08:20:04;11.47;;;9.30;;
11943;SDS011;6031;50.220;10.122;2023-03-19T08:22:38;18.90;;;11.33;;
11943;SDS011;6031;50.220;10.122;2023-03-19T08:25:04;12.47;;;9.77;;
11943;SDS011;6031;50.220;10.122;2023-03-19T08:27:31;14.73;;;10.20;;
11943;SDS011;6031;50.220;10.122;2023-03-19T08:29:59;16.20;;;11.20;;
11943;SDS011;6031;50.220;10.122;2023-03-19T08:32:25;13.63;;;9.80;;
11943;SDS011;6031;50.220;10.122;2023-03-19T08:34:50;11.60;;;8.87;;
11943;SDS011;6031;50.220;10.122;2023-03-19T08:37:16;9.63;;;8.53;;
11943;SDS011;6031;50.220;10.122;2023-03-19T08:39:42;10.07;;;8.57;;
11943;SDS011;6031;50.220;10.122;2023-03-19T08:42:08;8.70;;;7.77;;
11943;SDS011;6031;50.220;10.122;2023-03-19T08:44:33;9.27;;;8.03;;
11943;SDS011;6031;50.220;10.122;2023-03-19T08:46:59;9.40;;;7.97;;
11943;SDS011;6031;50.220;10.122;2023-03-19T08:49:25;9.10;;;7.80;;
11943;SDS011;6031;50.220;10.122;2023-03-19T08:51:50;10.97;;;8.07;;
11943;SDS011;6031;50.220;10.122;2023-03-19T08:54:16;14.83;;;10.10;;
11943;SDS011;6031;50.220;10.122;2023-03-19T08:56:41;12.70;;;9.27;;
11943;SDS011;6031;50.220;10.122;2023-03-19T08:59:07;7.30;;;6.07;;
11943;SDS011;6031;50.220;10.122;2023-03-19T09:01:32;15.87;;;10.47;;
11943;SDS011;6031;50.220;10.122;2023-03-19T09:03:58;9.93;;;7.20;;
11943;SDS011;6031;50.220;10.122;2023-03-19T09:06:24;9.30;;;6.97;;
11943;SDS011;6031;50.220;10.122;2023-03-19T09:08:49;8.60;;;7.27;;
11943;SDS011;6031;50.220;10.122;2023-03-19T09:11:15;6.60;;;6.00;;
11943;SDS011;6031;50.220;10.122;2023-03-19T09:13:41;7.67;;;6.07;;
11943;SDS011;6031;50.220;10.122;2023-03-19T09:16:07;6.77;;;5.80;;
11943;SDS011;6031;50.220;10.122;2023-03-19T09:18:33;8.70;;;6.00;;
11943;SDS011;6031;50.220;10.122;2023-03-19T09:20:59;7.30;;;6.00;;
11943;SDS011;6031;50.220;10.122;2023-03-19T09:23:25;7.33;;;5.90;;
11943;SDS011;6031;50.220;10.122;2023-03-19T09:25:51;8.80;;;6.33;;
11943;SDS011;6031;50.220;10.122;2023-03-19T09:28:17;6.23;;;5.63;;
11943;SDS011;6031;50.220;10.122;2023-03-19T09:30:46;7.73;;;5.73;;
11943;SDS011;6031;50.220;10.122;2023-03-19T09:33:13;9.70;;;7.13;;
11943;SDS011;6031;50.220;10.122;2023-03-19T09:35:40;9.77;;;8.37;;
11943;SDS011;6031;50.220;10.122;2023-03-19T09:38:06;7.83;;;6.17;;
11943;SDS011;6031;50.220;10.122;2023-03-19T09:40:40;9.83;;;6.57;;
11943;SDS011;6031;50.220;10.122;2023-03-19T09:45:51;7.23;;;6.03;;
11943;SDS011;6031;50.220;10.122;2023-03-19T09:48:18;4.90;;;4.50;;
11943;SDS011;6031;50.220;10.122;2023-03-19T09:50:57;7.00;;;4.60;;
11943;SDS011;6031;50.220;10.122;2023-03-19T09:53:39;4.10;;;3.70;;
11943;SDS011;6031;50.220;10.122;2023-03-19T09:56:13;6.73;;;4.30;;
11943;SDS011;6031;50.220;10.122;2023-03-19T09:58:40;4.47;;;3.70;;
11943;SDS011;6031;50.220;10.122;2023-03-19T10:01:10;4.40;;;3.80;;
11943;SDS011;6031;50.220;10.122;2023-03-19T10:03:59;4.40;;;4.00;;
11943;SDS011;6031;50.220;10.122;2023-03-19T10:06:33;3.60;;;3.40;;
11943;SDS011;6031;50.220;10.122;2023-03-19T10:11:43;3.80;;;3.30;;
11943;SDS011;6031;50.220;10.122;2023-03-19T10:15:07;4.00;;;3.40;;
11943;SDS011;6031;50.220;10.122;2023-03-19T10:17:26;3.33;;;3.00;;
11943;SDS011;6031;50.220;10.122;2023-03-19T10:22:48;4.50;;;3.30;;
11943;SDS011;6031;50.220;10.122;2023-03-19T10:25:20;3.53;;;3.33;;
11943;SDS011;6031;50.220;10.122;2023-03-19T10:27:52;3.77;;;3.30;;
11943;SDS011;6031;50.220;10.122;2023-03-19T10:30:23;3.33;;;3.07;;
11943;SDS011;6031;50.220;10.122;2023-03-19T10:32:52;3.40;;;3.10;;
11943;SDS011;6031;50.220;10.122;2023-03-19T10:35:56;5.53;;;3.40;;
11943;SDS011;6031;50.220;10.122;2023-03-19T10:38:26;3.43;;;3.13;;
11943;SDS011;6031;50.220;10.122;2023-03-19T10:43:27;3.40;;;3.00;;
11943;SDS011;6031;50.220;10.122;2023-03-19T10:45:56;2.70;;;2.50;;
11943;SDS011;6031;50.220;10.122;2023-03-19T10:48:23;3.40;;;3.00;;
11943;SDS011;6031;50.220;10.122;2023-03-19T10:50:59;4.20;;;3.30;;
11943;SDS011;6031;50.220;10.122;2023-03-19T10:53:32;3.07;;;2.77;;
11943;SDS011;6031;50.220;10.122;2023-03-19T10:56:00;3.00;;;2.70;;
11943;SDS011;6031;50.220;10.122;2023-03-19T10:58:32;3.47;;;2.73;;
11943;SDS011;6031;50.220;10.122;2023-03-19T11:01:03;3.30;;;3.00;;
11943;SDS011;6031;50.220;10.122;2023-03-19T11:03:35;4.07;;;2.90;;
11943;SDS011;6031;50.220;10.122;2023-03-19T11:14:23;5.23;;;2.63;;
11943;SDS011;6031;50.220;10.122;2023-03-19T11:16:56;3.67;;;2.90;;
11943;SDS011;6031;50.220;10.122;2023-03-19T11:19:30;3.10;;;2.60;;
11943;SDS011;6031;50.220;10.122;2023-03-19T11:24:49;3.37;;;2.70;;
11943;SDS011;6031;50.220;10.122;2023-03-19T11:27:18;3.37;;;2.70;;
11943;SDS011;6031;50.220;10.122;2023-03-19T11:29:52;2.50;;;2.30;;
11943;SDS011;6031;50.220;10.122;2023-03-19T11:34:58;3.10;;;2.50;;
11943;SDS011;6031;50.220;10.122;2023-03-19T11:40:30;5.17;;;4.57;;
11943;SDS011;6031;50.220;10.122;2023-03-19T11:45:37;2.60;;;2.40;;
11943;SDS011;6031;50.220;10.122;2023-03-19T11:51:19;5.13;;;2.10;;
11943;SDS011;6031;50.220;10.122;2023-03-19T11:56:44;3.67;;;2.17;;
11943;SDS011;6031;50.220;10.122;2023-03-19T11:59:36;4.17;;;1.97;;
11943;SDS011;6031;50.220;10.122;2023-03-19T12:13:03;2.80;;;2.20;;
11943;SDS011;6031;50.220;10.122;2023-03-19T12:20:57;2.33;;;1.90;;
11943;SDS011;6031;50.220;10.122;2023-03-19T12:35:16;2.20;;;2.00;;
11943;SDS011;6031;50.220;10.122;2023-03-19T12:37:47;2.50;;;2.30;;
11943;SDS011;6031;50.220;10.122;2023-03-19T12:40:36;2.43;;;2.23;;
11943;SDS011;6031;50.220;10.122;2023-03-19T12:43:24;2.73;;;2.30;;
11943;SDS011;6031;50.220;10.122;2023-03-19T12:46:08;2.50;;;2.30;;
11943;SDS011;6031;50.220;10.122;2023-03-19T12:49:03;2.73;;;2.07;;
11943;SDS011;6031;50.220;10.122;2023-03-19T12:51:34;3.27;;;2.37;;
11943;SDS011;6031;50.220;10.122;2023-03-19T12:54:05;2.27;;;1.63;;
11943;SDS011;6031;50.220;10.122;2023-03-19T12:56:45;2.20;;;1.90;;
11943;SDS011;6031;50.220;10.122;2023-03-19T12:59:34;3.00;;;2.10;;
11943;SDS011;6031;50.220;10.122;2023-03-19T13:05:18;3.43;;;2.70;;
11943;SDS011;6031;50.220;10.122;2023-03-19T13:08:01;21.00;;;11.63;;
11943;SDS011;6031;50.220;10.122;2023-03-19T13:10:35;3.73;;;2.63;;
11943;SDS011;6031;50.220;10.122;2023-03-19T13:13:05;30.03;;;20.70;;
11943;SDS011;6031;50.220;10.122;2023-03-19T13:15:57;1.63;;;1.47;;
11943;SDS011;6031;50.220;10.122;2023-03-19T13:18:45;2.90;;;1.80;;
11943;SDS011;6031;50.220;10.122;2023-03-19T13:21:22;3.07;;;1.83;;
11943;SDS011;6031;50.220;10.122;2023-03-19T13:24:00;2.97;;;2.17;;
11943;SDS011;6031;50.220;10.122;2023-03-19T13:26:33;3.87;;;2.27;;
11943;SDS011;6031;50.220;10.122;2023-03-19T13:29:14;3.23;;;1.93;;
11943;SDS011;6031;50.220;10.122;2023-03-19T13:31:44;4.47;;;3.57;;
11943;SDS011;6031;50.220;10.122;2023-03-19T13:36:44;2.30;;;2.17;;
11943;SDS011;6031;50.220;10.122;2023-03-19T13:39:19;4.20;;;1.90;;
11943;SDS011;6031;50.220;10.122;2023-03-19T13:44:33;1.80;;;1.70;;
11943;SDS011;6031;50.220;10.122;2023-03-19T13:57:52;2.33;;;2.13;;
11943;SDS011;6031;50.220;10.122;2023-03-19T14:03:13;3.63;;;3.13;;
11943;SDS011;6031;50.220;10.122;2023-03-19T14:05:50;4.53;;;4.07;;
11943;SDS011;6031;50.220;10.122;2023-03-19T14:08:23;3.93;;;3.40;;
11943;SDS011;6031;50.220;10.122;2023-03-19T14:11:11;3.23;;;2.70;;
11943;SDS011;6031;50.220;10.122;2023-03-19T14:13:48;2.70;;;2.50;;
11943;SDS011;6031;50.220;10.122;2023-03-19T14:16:16;2.27;;;1.90;;
11943;SDS011;6031;50.220;10.122;2023-03-19T14:18:46;2.60;;;2.50;;
11943;SDS011;6031;50.220;10.122;2023-03-19T14:21:14;3.63;;;3.33;;
11943;SDS011;6031;50.220;10.122;2023-03-19T14:23:54;3.87;;;3.40;;
11943;SDS011;6031;50.220;10.122;2023-03-19T14:26:22;4.57;;;3.07;;
11943;SDS011;6031;50.220;10.122;2023-03-19T14:28:54;3.10;;;2.87;;
11943;SDS011;6031;50.220;10.122;2023-03-19T14:31:25;2.90;;;2.70;;
11943;SDS011;6031;50.220;10.122;2023-03-19T14:34:24;2.47;;;1.67;;
11943;SDS011;6031;50.220;10.122;2023-03-19T14:37:20;4.57;;;3.23;;
11943;SDS011;6031;50.220;10.122;2023-03-19T14:39:44;2.93;;;2.60;;
11943;SDS011;6031;50.220;10.122;2023-03-19T14:42:16;1.50;;;1.40;;
11943;SDS011;6031;50.220;10.122;2023-03-19T14:44:55;3.80;;;2.60;;
11943;SDS011;6031;50.220;10.122;2023-03-19T14:47:44;5.27;;;4.23;;
11943;SDS011;6031;50.220;10.122;2023-03-19T14:50:32;4.93;;;4.00;;
11943;SDS011;6031;50.220;10.122;2023-03-19T14:53:24;26.07;;;17.87;;
11943;SDS011;6031;50.220;10.122;2023-03-19T14:56:09;19.67;;;12.60;;
11943;SDS011;6031;50.220;10.122;2023-03-19T14:58:45;26.27;;;13.67;;
11943;SDS011;6031;50.220;10.122;2023-03-19T15:01:12;10.67;;;6.90;;
11943;SDS011;6031;50.220;10.122;2023-03-19T15:03:38;3.47;;;3.03;;
11943;SDS011;6031;50.220;10.122;2023-03-19T15:06:04;9.97;;;5.87;;
11943;SDS011;6031;50.220;10.122;2023-03-19T15:08:32;7.97;;;5.93;;
11943;SDS011;6031;50.220;10.122;2023-03-19T15:16:38;2.10;;;1.57;;
11943;SDS011;6031;50.220;10.122;2023-03-19T15:19:14;3.13;;;2.50;;
11943;SDS011;6031;50.220;10.122;2023-03-19T15:21:43;6.07;;;3.37;;
11943;SDS011;6031;50.220;10.122;2023-03-19T15:24:13;6.97;;;3.47;;
11943;SDS011;6031;50.220;10.122;2023-03-19T15:26:41;7.37;;;3.30;;
11943;SDS011;6031;50.220;10.122;2023-03-19T15:29:07;1.97;;;1.77;;
11943;SDS011;6031;50.220;10.122;2023-03-19T15:31:44;2.77;;;2.13;;
11943;SDS011;6031;50.220;10.122;2023-03-19T15:34:21;6.83;;;4.23;;
11943;SDS011;6031;50.220;10.122;2023-03-19T15:36:53;2.43;;;2.23;;
11943;SDS011;6031;50.220;10.122;2023-03-19T15:39:25;2.30;;;1.50;;
11943;SDS011;6031;50.220;10.122;2023-03-19T15:41:54;1.03;;;0.93;;
11943;SDS011;6031;50.220;10.122;2023-03-19T15:44:23;1.03;;;1.00;;
11943;SDS011;6031;50.220;10.122;2023-03-19T15:46:56;0.90;;;0.90;;
11943;SDS011;6031;50.220;10.122;2023-03-19T15:49:24;0.70;;;0.70;;
11943;SDS011;6031;50.220;10.122;2023-03-19T15:51:57;0.53;;;0.53;;
11943;SDS011;6031;50.220;10.122;2023-03-19T15:54:26;1.00;;;1.00;;
11943;SDS011;6031;50.220;10.122;2023-03-19T15:56:52;1.47;;;1.00;;
11943;SDS011;6031;50.220;10.122;2023-03-19T15:59:19;2.00;;;0.87;;
11943;SDS011;6031;50.220;10.122;2023-03-19T16:01:46;1.43;;;0.80;;
11943;SDS011;6031;50.220;10.122;2023-03-19T16:04:16;1.43;;;0.60;;
11943;SDS011;6031;50.220;10.122;2023-03-19T16:06:47;0.97;;;0.97;;
11943;SDS011;6031;50.220;10.122;2023-03-19T16:09:30;1.43;;;1.03;;
11943;SDS011;6031;50.220;10.122;2023-03-19T16:11:57;1.80;;;0.70;;
11943;SDS011;6031;50.220;10.122;2023-03-19T16:14:32;1.37;;;1.10;;
11943;SDS011;6031;50.220;10.122;2023-03-19T16:17:10;6.90;;;4.53;;
11943;SDS011;6031;50.220;10.122;2023-03-19T16:19:46;3.60;;;2.97;;
11943;SDS011;6031;50.220;10.122;2023-03-19T16:22:13;18.77;;;9.53;;
11943;SDS011;6031;50.220;10.122;2023-03-19T16:24:48;9.67;;;5.83;;
11943;SDS011;6031;50.220;10.122;2023-03-19T16:27:15;6.40;;;3.10;;
11943;SDS011;6031;50.220;10.122;2023-03-19T16:29:44;10.77;;;4.90;;
11943;SDS011;6031;50.220;10.122;2023-03-19T16:32:21;6.40;;;3.93;;